createdAt,value
2018-04-11T00:00:11.517Z,38.00
2018-04-11T00:01:12.230Z,51.00
2018-04-11T00:02:12.942Z,39.00
2018-04-11T00:03:13.656Z,55.00
2018-04-11T00:04:14.379Z,55.00
2018-04-11T00:05:15.091Z,36.00
2018-04-11T00:06:15.803Z,35.00
2018-04-11T00:07:16.516Z,35.00
2018-04-11T00:08:17.227Z,45.00
2018-04-11T00:09:17.951Z,28.00
2018-04-11T00:10:18.663Z,33.00
2018-04-11T00:11:19.375Z,33.00
2018-04-11T00:12:20.097Z,35.00
2018-04-11T00:13:20.803Z,39.00
2018-04-11T00:14:21.517Z,32.00
2018-04-11T00:15:22.228Z,39.00
2018-04-11T00:16:22.939Z,40.00
2018-04-11T00:17:23.652Z,42.00
2018-04-11T00:18:24.364Z,30.00
2018-04-11T00:19:25.099Z,34.00
2018-04-11T00:20:25.802Z,39.00
2018-04-11T00:21:26.528Z,27.00
2018-04-11T00:22:27.242Z,35.00
2018-04-11T00:23:27.971Z,37.00
2018-04-11T00:24:28.681Z,39.00
2018-04-11T00:25:29.399Z,39.00
2018-04-11T00:26:30.106Z,37.00
2018-04-11T00:27:30.818Z,34.00
2018-04-11T00:28:31.529Z,33.00
2018-04-11T00:29:32.242Z,43.00
2018-04-11T00:30:32.954Z,37.00
2018-04-11T00:31:33.676Z,38.00
2018-04-11T00:32:34.388Z,41.00
2018-04-11T00:33:35.100Z,46.00
2018-04-11T00:34:35.812Z,39.00
2018-04-11T00:35:36.523Z,44.00
2018-04-11T00:36:37.235Z,47.00
2018-04-11T00:37:37.948Z,40.00
2018-04-11T00:38:38.663Z,37.00
2018-04-11T00:39:39.385Z,45.00
2018-04-11T00:40:40.096Z,44.00
2018-04-11T00:41:40.807Z,34.00
2018-04-11T00:42:41.520Z,55.00
2018-04-11T00:43:42.231Z,54.00
2018-04-11T00:44:42.956Z,43.00
2018-04-11T00:45:43.670Z,58.00
2018-04-11T00:46:44.383Z,61.00
2018-04-11T00:47:45.105Z,47.00
2018-04-11T00:48:45.818Z,49.00
2018-04-11T00:49:46.532Z,49.00
2018-04-11T00:50:47.244Z,51.00
2018-04-11T00:51:47.968Z,55.00
2018-04-11T00:52:48.681Z,44.00
2018-04-11T00:53:49.402Z,60.00
2018-04-11T00:54:50.117Z,68.00
2018-04-11T00:55:50.829Z,64.00
2018-04-11T00:56:51.542Z,64.00
2018-04-11T00:57:52.255Z,53.00
2018-04-11T00:58:52.971Z,48.00
2018-04-11T00:59:53.691Z,61.00
2018-04-11T01:00:54.414Z,58.00
2018-04-11T01:01:55.127Z,72.00
2018-04-11T01:02:55.839Z,48.00
2018-04-11T01:03:56.550Z,70.00
2018-04-11T01:04:57.262Z,53.00
2018-04-11T01:05:57.972Z,52.00
2018-04-11T01:06:58.686Z,62.00
2018-04-11T01:07:59.396Z,58.00
2018-04-11T01:09:00.108Z,57.00
2018-04-11T01:10:00.832Z,59.00
2018-04-11T01:11:01.548Z,56.00
2018-04-11T01:12:02.267Z,67.00
2018-04-11T01:13:02.980Z,56.00
2018-04-11T01:14:03.691Z,46.00
2018-04-11T01:15:04.406Z,69.00
2018-04-11T01:16:05.117Z,55.00
2018-04-11T01:17:05.841Z,56.00
2018-04-11T01:18:06.551Z,51.00
2018-04-11T01:19:07.262Z,59.00
2018-04-11T01:20:07.975Z,57.00
2018-04-11T01:21:08.689Z,57.00
2018-04-11T01:22:09.402Z,53.00
2018-04-11T01:23:10.115Z,48.00
2018-04-11T01:24:10.836Z,56.00
2018-04-11T01:25:11.561Z,58.00
2018-04-11T01:26:12.276Z,54.00
2018-04-11T01:27:12.997Z,67.00
2018-04-11T01:28:13.708Z,46.00
2018-04-11T01:29:14.420Z,52.00
2018-04-11T01:30:15.137Z,53.00
2018-04-11T01:31:15.859Z,55.00
2018-04-11T01:32:16.568Z,56.00
2018-04-11T01:33:17.279Z,63.00
2018-04-11T01:34:17.991Z,72.00
2018-04-11T01:35:18.703Z,51.00
2018-04-11T01:36:19.422Z,60.00
2018-04-11T01:37:20.135Z,53.00
2018-04-11T01:38:20.847Z,68.00
2018-04-11T01:39:21.557Z,61.00
2018-04-11T01:40:22.267Z,57.00
2018-04-11T01:41:22.990Z,64.00
2018-04-11T01:42:23.702Z,69.00
2018-04-11T01:43:24.413Z,62.00
2018-04-11T01:44:25.148Z,61.00
2018-04-11T01:45:25.843Z,61.00
2018-04-11T01:46:26.562Z,65.00
2018-04-11T01:47:27.274Z,74.00
2018-04-11T01:48:27.990Z,61.00
2018-04-11T01:49:28.700Z,66.00
2018-04-11T01:50:29.430Z,48.00
2018-04-11T01:51:30.142Z,60.00
2018-04-11T01:52:30.855Z,58.00
2018-04-11T01:53:31.569Z,67.00
2018-04-11T01:54:32.282Z,63.00
2018-04-11T01:55:32.996Z,62.00
2018-04-11T01:56:33.966Z,53.00
2018-04-11T01:57:34.677Z,64.00
2018-04-11T01:58:35.390Z,59.00
2018-04-11T01:59:36.109Z,51.00
2018-04-11T02:00:36.828Z,55.00
2018-04-11T02:01:37.542Z,59.00
2018-04-11T02:02:38.254Z,66.00
2018-04-11T02:03:38.980Z,62.00
2018-04-11T02:04:39.696Z,58.00
2018-04-11T02:05:40.417Z,55.00
2018-04-11T02:06:41.129Z,55.00
2018-04-11T02:07:41.842Z,56.00
2018-04-11T02:08:42.556Z,60.00
2018-04-11T02:09:43.328Z,59.00
2018-04-11T02:10:43.993Z,67.00
2018-04-11T02:11:44.705Z,51.00
2018-04-11T02:12:45.418Z,64.00
2018-04-11T02:13:46.143Z,67.00
2018-04-11T02:14:46.853Z,49.00
2018-04-11T02:15:47.577Z,57.00
2018-04-11T02:16:48.290Z,61.00
2018-04-11T02:17:49.016Z,69.00
2018-04-11T02:18:49.729Z,72.00
2018-04-11T02:19:50.443Z,56.00
2018-04-11T02:20:51.158Z,74.00
2018-04-11T02:21:51.873Z,55.00
2018-04-11T02:22:52.599Z,50.00
2018-04-11T02:23:53.312Z,53.00
2018-04-11T02:24:54.022Z,57.00
2018-04-11T02:25:54.735Z,69.00
2018-04-11T02:26:55.448Z,62.00
2018-04-11T02:27:56.172Z,65.00
2018-04-11T02:28:56.886Z,58.00
2018-04-11T02:29:57.599Z,78.00
2018-04-11T02:30:58.313Z,61.00
2018-04-11T02:31:59.040Z,58.00
2018-04-11T02:32:59.742Z,58.00
2018-04-11T02:34:00.466Z,52.00
2018-04-11T02:35:01.179Z,77.00
2018-04-11T02:36:01.894Z,59.00
2018-04-11T02:37:02.616Z,69.00
2018-04-11T02:38:03.320Z,88.00
2018-04-11T02:39:04.033Z,64.00
2018-04-11T02:40:04.758Z,75.00
2018-04-11T02:41:05.469Z,68.00
2018-04-11T02:42:06.186Z,64.00
2018-04-11T02:43:06.892Z,66.00
2018-04-11T02:44:07.603Z,67.00
2018-04-11T02:45:08.323Z,58.00
2018-04-11T02:46:09.045Z,75.00
2018-04-11T02:47:09.753Z,59.00
2018-04-11T02:48:10.465Z,70.00
2018-04-11T02:49:11.188Z,55.00
2018-04-11T02:50:11.913Z,55.00
2018-04-11T02:51:12.626Z,75.00
2018-04-11T02:52:13.340Z,62.00
2018-04-11T02:53:14.053Z,56.00
2018-04-11T02:54:14.776Z,50.00
2018-04-11T02:55:15.499Z,62.00
2018-04-11T02:56:16.210Z,64.00
2018-04-11T02:57:16.937Z,60.00
2018-04-11T02:58:17.649Z,58.00
2018-04-11T02:59:18.361Z,50.00
2018-04-11T03:00:19.074Z,53.00
2018-04-11T03:01:19.786Z,58.00
2018-04-11T03:02:20.497Z,58.00
2018-04-11T03:03:21.224Z,60.00
2018-04-11T03:04:21.936Z,53.00
2018-04-11T03:05:22.661Z,55.00
2018-04-11T03:06:23.374Z,50.00
2018-04-11T03:07:24.087Z,52.00
2018-04-11T03:08:24.812Z,53.00
2018-04-11T03:09:25.553Z,70.00
2018-04-11T03:10:26.245Z,59.00
2018-04-11T03:11:26.958Z,50.00
2018-04-11T03:12:27.671Z,54.00
2018-04-11T03:13:28.384Z,63.00
2018-04-11T03:14:29.098Z,62.00
2018-04-11T03:15:29.812Z,62.00
2018-04-11T03:16:30.535Z,68.00
2018-04-11T03:17:31.248Z,51.00
2018-04-11T03:18:31.970Z,69.00
2018-04-11T03:19:32.682Z,52.00
2018-04-11T03:20:33.394Z,63.00
2018-04-11T03:21:34.107Z,52.00
2018-04-11T03:22:34.820Z,65.00
2018-04-11T03:23:35.542Z,54.00
2018-04-11T03:24:36.254Z,48.00
2018-04-11T03:25:36.981Z,59.00
2018-04-11T03:26:37.706Z,58.00
2018-04-11T03:27:38.414Z,52.00
2018-04-11T03:28:39.127Z,68.00
2018-04-11T03:29:39.838Z,58.00
2018-04-11T03:30:40.552Z,63.00
2018-04-11T03:31:41.263Z,62.00
2018-04-11T03:32:41.976Z,65.00
2018-04-11T03:33:42.688Z,54.00
2018-04-11T03:34:43.404Z,62.00
2018-04-11T03:35:44.125Z,62.00
2018-04-11T03:36:44.850Z,65.00
2018-04-11T03:37:45.563Z,73.00
2018-04-11T03:38:46.276Z,52.00
2018-04-11T03:39:46.988Z,48.00
2018-04-11T03:40:47.710Z,53.00
2018-04-11T03:41:48.421Z,56.00
2018-04-11T03:42:49.145Z,54.00
2018-04-11T03:43:49.858Z,71.00
2018-04-11T03:44:50.584Z,56.00
2018-04-11T03:45:51.298Z,61.00
2018-04-11T03:46:52.011Z,47.00
2018-04-11T03:47:52.736Z,60.00
2018-04-11T03:48:53.447Z,53.00
2018-04-11T03:49:54.159Z,57.00
2018-04-11T03:50:54.869Z,46.00
2018-04-11T03:51:55.580Z,41.00
2018-04-11T03:52:56.294Z,53.00
2018-04-11T03:53:57.003Z,51.00
2018-04-11T03:54:57.726Z,45.00
2018-04-11T03:55:58.448Z,52.00
2018-04-11T03:56:59.161Z,61.00
2018-04-11T03:57:59.872Z,64.00
2018-04-11T03:59:00.602Z,51.00
2018-04-11T04:00:01.313Z,57.00
2018-04-11T04:01:02.026Z,61.00
2018-04-11T04:02:02.751Z,56.00
2018-04-11T04:03:03.461Z,47.00
2018-04-11T04:04:04.185Z,62.00
2018-04-11T04:05:04.897Z,49.00
2018-04-11T04:06:05.608Z,49.00
2018-04-11T04:07:06.323Z,69.00
2018-04-11T04:08:07.032Z,58.00
2018-04-11T04:09:07.745Z,59.00
2018-04-11T04:10:08.460Z,63.00
2018-04-11T04:11:09.167Z,51.00
2018-04-11T04:12:09.880Z,49.00
2018-04-11T04:13:10.593Z,51.00
2018-04-11T04:14:11.320Z,69.00
2018-04-11T04:15:12.034Z,52.00
2018-04-11T04:16:12.748Z,61.00
2018-04-11T04:17:13.461Z,47.00
2018-04-11T04:18:14.172Z,63.00
2018-04-11T04:19:14.885Z,59.00
2018-04-11T04:20:15.597Z,58.00
2018-04-11T04:21:16.310Z,71.00
2018-04-11T04:22:17.023Z,66.00
2018-04-11T04:23:17.739Z,62.00
2018-04-11T04:24:18.461Z,44.00
2018-04-11T04:25:19.175Z,66.00
2018-04-11T04:26:19.885Z,59.00
2018-04-11T04:27:20.611Z,58.00
2018-04-11T04:28:21.323Z,62.00
2018-04-11T04:29:22.034Z,48.00
2018-04-11T04:30:22.757Z,65.00
2018-04-11T04:31:23.457Z,56.00
2018-04-11T04:32:24.168Z,63.00
2018-04-11T04:33:24.894Z,65.00
2018-04-11T04:34:25.607Z,49.00
2018-04-11T04:35:26.331Z,37.00
2018-04-11T04:36:27.057Z,48.00
2018-04-11T04:37:27.782Z,44.00
2018-04-11T04:38:28.501Z,43.00
2018-04-11T04:39:29.227Z,65.00
2018-04-11T04:40:29.949Z,54.00
2018-04-11T04:41:30.663Z,46.00
2018-04-11T04:42:31.376Z,42.00
2018-04-11T04:43:32.155Z,52.00
2018-04-11T04:44:32.816Z,56.00
2018-04-11T04:45:33.534Z,48.00
2018-04-11T04:46:34.242Z,54.00
2018-04-11T04:47:34.956Z,63.00
2018-04-11T04:48:35.672Z,46.00
2018-04-11T04:49:36.389Z,68.00
2018-04-11T04:50:37.106Z,42.00
2018-04-11T04:51:37.822Z,49.00
2018-04-11T04:52:38.537Z,53.00
2018-04-11T04:53:39.255Z,44.00
2018-04-11T04:54:39.971Z,54.00
2018-04-11T04:55:40.688Z,58.00
2018-04-11T04:56:41.404Z,56.00
2018-04-11T04:57:42.130Z,50.00
2018-04-11T04:58:42.845Z,45.00
2018-04-11T04:59:43.560Z,49.00
2018-04-11T05:00:44.274Z,56.00
2018-04-11T05:01:44.992Z,50.00
2018-04-11T05:02:45.710Z,37.00
2018-04-11T05:03:46.425Z,45.00
2018-04-11T05:04:47.139Z,60.00
2018-04-11T05:05:47.871Z,61.00
2018-04-11T05:06:48.584Z,64.00
2018-04-11T05:07:49.299Z,47.00
2018-04-11T05:08:50.016Z,53.00
2018-04-11T05:09:50.732Z,49.00
2018-04-11T05:10:51.448Z,45.00
2018-04-11T05:11:52.163Z,43.00
2018-04-11T05:12:52.878Z,47.00
2018-04-11T05:13:53.595Z,68.00
2018-04-11T05:14:54.310Z,48.00
2018-04-11T05:15:55.039Z,41.00
2018-04-11T05:16:55.768Z,60.00
2018-04-11T05:17:56.496Z,55.00
2018-04-11T05:18:57.212Z,51.00
2018-04-11T05:19:57.933Z,47.00
2018-04-11T05:20:58.645Z,54.00
2018-04-11T05:21:59.361Z,44.00
2018-04-11T05:23:00.076Z,51.00
2018-04-11T05:24:00.792Z,51.00
2018-04-11T05:25:01.510Z,38.00
2018-04-11T05:26:02.240Z,62.00
2018-04-11T05:27:02.970Z,52.00
2018-04-11T05:28:03.699Z,47.00
2018-04-11T05:29:04.429Z,51.00
2018-04-11T05:30:05.147Z,56.00
2018-04-11T05:31:05.862Z,62.00
2018-04-11T05:32:06.579Z,48.00
2018-04-11T05:33:07.297Z,62.00
2018-04-11T05:34:08.013Z,54.00
2018-04-11T05:35:08.733Z,51.00
2018-04-11T05:36:09.462Z,49.00
2018-04-11T05:37:10.182Z,52.00
2018-04-11T05:38:10.899Z,48.00
2018-04-11T05:39:11.614Z,44.00
2018-04-11T05:40:12.343Z,51.00
2018-04-11T05:41:13.072Z,45.00
2018-04-11T05:42:13.803Z,48.00
2018-04-11T05:43:14.531Z,44.00
2018-04-11T05:44:15.249Z,41.00
2018-04-11T05:45:15.965Z,41.00
2018-04-11T05:46:16.683Z,41.00
2018-04-11T05:47:17.407Z,43.00
2018-04-11T05:48:18.124Z,48.00
2018-04-11T05:49:18.837Z,47.00
2018-04-11T05:50:19.554Z,52.00
2018-04-11T05:51:20.285Z,43.00
2018-04-11T05:52:21.002Z,53.00
2018-04-11T05:53:21.771Z,46.00
2018-04-11T05:54:22.437Z,35.00
2018-04-11T05:55:23.154Z,42.00
2018-04-11T05:56:23.874Z,61.00
2018-04-11T05:57:24.588Z,43.00
2018-04-11T05:58:25.304Z,60.00
2018-04-11T05:59:26.021Z,54.00
2018-04-11T06:00:26.739Z,40.00
2018-04-11T06:01:27.459Z,44.00
2018-04-11T06:02:28.176Z,38.00
2018-04-11T06:03:28.906Z,41.00
2018-04-11T06:04:29.623Z,44.00
2018-04-11T06:05:30.343Z,43.00
2018-04-11T06:06:31.064Z,58.00
2018-04-11T06:07:31.783Z,43.00
2018-04-11T06:08:32.500Z,49.00
2018-04-11T06:09:33.221Z,55.00
2018-04-11T06:10:33.940Z,50.00
2018-04-11T06:11:34.661Z,51.00
2018-04-11T06:12:35.380Z,50.00
2018-04-11T06:13:36.097Z,41.00
2018-04-11T06:14:36.815Z,39.00
2018-04-11T06:15:37.546Z,43.00
2018-04-11T06:16:38.267Z,46.00
2018-04-11T06:17:38.988Z,43.00
2018-04-11T06:18:39.706Z,48.00
2018-04-11T06:19:40.426Z,53.00
2018-04-11T06:20:41.162Z,44.00
2018-04-11T06:21:41.880Z,48.00
2018-04-11T06:22:42.603Z,53.00
2018-04-11T06:23:43.322Z,51.00
2018-04-11T06:24:44.038Z,50.00
2018-04-11T06:25:44.757Z,48.00
2018-04-11T06:26:45.478Z,48.00
2018-04-11T06:27:46.197Z,45.00
2018-04-11T06:28:46.916Z,49.00
2018-04-11T06:29:47.634Z,48.00
2018-04-11T06:30:48.368Z,43.00
2018-04-11T06:31:49.099Z,47.00
2018-04-11T06:32:49.811Z,41.00
2018-04-11T06:33:50.531Z,52.00
2018-04-11T06:34:51.264Z,43.00
2018-04-11T06:35:51.985Z,34.00
2018-04-11T06:36:52.709Z,48.00
2018-04-11T06:37:53.429Z,39.00
2018-04-11T06:38:54.188Z,44.00
2018-04-11T06:39:54.873Z,37.00
2018-04-11T06:40:55.595Z,40.00
2018-04-11T06:41:56.317Z,43.00
2018-04-11T06:42:57.041Z,49.00
2018-04-11T06:43:57.763Z,42.00
2018-04-11T06:44:58.487Z,49.00
2018-04-11T06:45:59.225Z,40.00
2018-04-11T06:46:59.946Z,47.00
2018-04-11T06:48:00.672Z,42.00
2018-04-11T06:49:01.405Z,40.00
2018-04-11T06:50:02.131Z,53.00
2018-04-11T06:51:02.852Z,55.00
2018-04-11T06:52:03.572Z,55.00
2018-04-11T06:53:04.295Z,44.00
2018-04-11T06:54:05.017Z,43.00
2018-04-11T06:55:05.755Z,94.00
2018-04-11T06:56:06.491Z,67.00
2018-04-11T06:57:07.227Z,34.00
2018-04-11T06:58:07.959Z,38.00
2018-04-11T06:59:08.686Z,36.00
2018-04-11T07:00:09.427Z,31.00
2018-04-11T07:01:10.161Z,46.00
2018-04-11T07:02:10.899Z,42.00
2018-04-11T07:03:11.633Z,33.00
2018-04-11T07:04:12.357Z,42.00
2018-04-11T07:05:13.081Z,39.00
2018-04-11T07:06:13.804Z,44.00
2018-04-11T07:07:14.529Z,46.00
2018-04-11T07:08:15.252Z,37.00
2018-04-11T07:09:15.976Z,37.00
2018-04-11T07:10:16.700Z,40.00
2018-04-11T07:11:17.437Z,41.00
2018-04-11T07:12:18.161Z,39.00
2018-04-11T07:13:18.887Z,40.00
2018-04-11T07:14:19.611Z,33.00
2018-04-11T07:15:20.336Z,44.00
2018-04-11T07:16:21.062Z,43.00
2018-04-11T07:17:21.791Z,39.00
2018-04-11T07:18:22.519Z,42.00
2018-04-11T07:19:23.244Z,49.00
2018-04-11T07:20:23.984Z,47.00
2018-04-11T07:21:24.727Z,41.00
2018-04-11T07:22:25.450Z,44.00
2018-04-11T07:23:26.176Z,39.00
2018-04-11T07:24:26.905Z,31.00
2018-04-11T07:25:27.635Z,36.00
2018-04-11T07:26:28.358Z,39.00
2018-04-11T07:27:29.089Z,38.00
2018-04-11T07:28:29.822Z,38.00
2018-04-11T07:29:30.550Z,41.00
2018-04-11T07:30:31.277Z,35.00
2018-04-11T07:31:32.008Z,34.00
2018-04-11T07:32:32.738Z,35.00
2018-04-11T07:33:33.469Z,42.00
2018-04-11T07:34:34.201Z,41.00
2018-04-11T07:35:34.932Z,38.00
2018-04-11T07:36:35.663Z,30.00
2018-04-11T07:37:36.395Z,40.00
2018-04-11T07:38:37.129Z,39.00
2018-04-11T07:39:37.870Z,37.00
2018-04-11T07:40:38.601Z,32.00
2018-04-11T07:41:39.333Z,47.00
2018-04-11T07:42:40.066Z,37.00
2018-04-11T07:43:40.802Z,35.00
2018-04-11T07:44:41.548Z,45.00
2018-04-11T07:45:42.278Z,30.00
2018-04-11T07:46:43.010Z,26.00
2018-04-11T07:47:43.743Z,44.00
2018-04-11T07:48:44.475Z,38.00
2018-04-11T07:49:45.209Z,28.00
2018-04-11T07:50:45.943Z,41.00
2018-04-11T07:51:46.678Z,30.00
2018-04-11T07:52:47.411Z,32.00
2018-04-11T07:53:48.146Z,38.00
2018-04-11T07:54:48.881Z,41.00
2018-04-11T07:55:49.615Z,38.00
2018-04-11T07:56:50.347Z,36.00
2018-04-11T07:57:51.078Z,40.00
2018-04-11T07:58:51.811Z,32.00
2018-04-11T07:59:52.558Z,34.00
2018-04-11T08:00:53.276Z,54.00
2018-04-11T08:01:54.007Z,50.00
2018-04-11T08:02:54.752Z,42.00
2018-04-11T08:03:55.484Z,24.00
2018-04-11T08:04:56.216Z,37.00
2018-04-11T08:05:56.950Z,41.00
2018-04-11T08:06:57.682Z,40.00
2018-04-11T08:07:58.417Z,30.00
2018-04-11T08:08:59.162Z,32.00
2018-04-11T08:09:59.908Z,30.00
2018-04-11T08:11:00.637Z,37.00
2018-04-11T08:12:01.381Z,40.00
2018-04-11T08:13:02.120Z,34.00
2018-04-11T08:14:02.860Z,32.00
2018-04-11T08:15:03.593Z,30.00
2018-04-11T08:16:04.326Z,37.00
2018-04-11T08:17:05.061Z,34.00
2018-04-11T08:18:05.830Z,38.00
2018-04-11T08:19:06.539Z,34.00
2018-04-11T08:20:07.273Z,34.00
2018-04-11T08:21:08.008Z,35.00
2018-04-11T08:22:08.740Z,36.00
2018-04-11T08:23:09.475Z,35.00
2018-04-11T08:24:10.207Z,33.00
2018-04-11T08:25:10.941Z,35.00
2018-04-11T08:26:11.676Z,25.00
2018-04-11T08:27:12.410Z,31.00
2018-04-11T08:28:13.145Z,37.00
2018-04-11T08:29:13.880Z,26.00
2018-04-11T08:30:14.615Z,35.00
2018-04-11T08:31:15.350Z,29.00
2018-04-11T08:32:16.084Z,33.00
2018-04-11T08:33:16.819Z,33.00
2018-04-11T08:34:17.555Z,30.00
2018-04-11T08:35:18.291Z,29.00
2018-04-11T08:36:19.024Z,41.00
2018-04-11T08:37:19.757Z,35.00
2018-04-11T08:38:20.503Z,44.00
2018-04-11T08:39:21.241Z,33.00
2018-04-11T08:40:21.976Z,39.00
2018-04-11T08:41:22.711Z,31.00
2018-04-11T08:42:23.445Z,34.00
2018-04-11T08:43:24.194Z,25.00
2018-04-11T08:44:24.929Z,43.00
2018-04-11T08:45:25.666Z,26.00
2018-04-11T08:46:26.400Z,30.00
2018-04-11T08:47:27.136Z,37.00
2018-04-11T08:48:27.873Z,35.00
2018-04-11T08:49:28.607Z,38.00
2018-04-11T08:50:29.343Z,31.00
2018-04-11T08:51:30.094Z,29.00
2018-04-11T08:52:30.883Z,26.00
2018-04-11T08:53:31.565Z,30.00
2018-04-11T08:54:32.300Z,40.00
2018-04-11T08:55:33.047Z,24.00
2018-04-11T08:56:33.784Z,30.00
2018-04-11T08:57:34.519Z,37.00
2018-04-11T08:58:35.253Z,25.00
2018-04-11T08:59:35.993Z,23.00
2018-04-11T09:00:36.728Z,27.00
2018-04-11T09:01:37.468Z,28.00
2018-04-11T09:02:38.201Z,22.00
2018-04-11T09:03:38.951Z,26.00
2018-04-11T09:04:39.704Z,22.00
2018-04-11T09:05:40.441Z,31.00
2018-04-11T09:06:41.177Z,21.00
2018-04-11T09:07:41.915Z,33.00
2018-04-11T09:08:42.650Z,32.00
2018-04-11T09:09:43.385Z,24.00
2018-04-11T09:10:44.122Z,36.00
2018-04-11T09:11:44.856Z,45.00
2018-04-11T09:12:45.593Z,37.00
2018-04-11T09:13:46.329Z,37.00
2018-04-11T09:14:47.078Z,38.00
2018-04-11T09:15:47.810Z,32.00
2018-04-11T09:16:48.545Z,29.00
2018-04-11T09:17:49.278Z,40.00
2018-04-11T09:18:50.014Z,33.00
2018-04-11T09:19:50.762Z,37.00
2018-04-11T09:20:51.512Z,32.00
2018-04-11T09:21:52.248Z,27.00
2018-04-11T09:22:52.983Z,29.00
2018-04-11T09:23:53.732Z,34.00
2018-04-11T09:24:54.469Z,22.00
2018-04-11T09:25:55.204Z,23.00
2018-04-11T09:26:55.939Z,28.00
2018-04-11T09:27:56.676Z,26.00
2018-04-11T09:28:57.412Z,32.00
2018-04-11T09:29:58.160Z,36.00
2018-04-11T09:30:58.893Z,23.00
2018-04-11T09:31:59.647Z,30.00
2018-04-11T09:33:00.390Z,27.00
2018-04-11T09:34:01.096Z,35.00
2018-04-11T09:35:01.830Z,28.00
2018-04-11T09:36:02.580Z,27.00
2018-04-11T09:37:03.311Z,39.00
2018-04-11T09:38:04.048Z,30.00
2018-04-11T09:39:04.782Z,28.00
2018-04-11T09:40:05.530Z,25.00
2018-04-11T09:41:06.267Z,34.00
2018-04-11T09:42:07.015Z,23.00
2018-04-11T09:43:07.751Z,29.00
2018-04-11T09:44:08.486Z,32.00
2018-04-11T09:45:09.223Z,25.00
2018-04-11T09:46:09.972Z,35.00
2018-04-11T09:47:10.722Z,32.00
2018-04-11T09:48:11.469Z,33.00
2018-04-11T09:49:12.223Z,25.00
2018-04-11T09:50:12.974Z,27.00
2018-04-11T09:51:13.709Z,32.00
2018-04-11T09:52:14.450Z,26.00
2018-04-11T09:53:15.193Z,35.00
2018-04-11T09:54:15.939Z,25.00
2018-04-11T09:55:16.683Z,35.00
2018-04-11T09:56:17.434Z,38.00
2018-04-11T09:57:18.178Z,28.00
2018-04-11T09:58:18.930Z,33.00
2018-04-11T09:59:19.689Z,28.00
2018-04-11T10:00:20.441Z,30.00
2018-04-11T10:01:21.178Z,47.00
2018-04-11T10:02:21.925Z,24.00
2018-04-11T10:03:22.675Z,24.00
2018-04-11T10:04:23.427Z,29.00
2018-04-11T10:05:24.173Z,22.00
2018-04-11T10:06:24.935Z,35.00
2018-04-11T10:07:25.692Z,31.00
2018-04-11T10:08:26.438Z,40.00
2018-04-11T10:09:27.180Z,26.00
2018-04-11T10:10:27.940Z,32.00
2018-04-11T10:11:28.701Z,33.00
2018-04-11T10:12:29.450Z,25.00
2018-04-11T10:13:30.196Z,36.00
2018-04-11T10:14:30.944Z,31.00
2018-04-11T10:15:31.688Z,32.00
2018-04-11T10:16:32.448Z,44.00
2018-04-11T10:17:33.190Z,34.00
2018-04-11T10:18:33.939Z,31.00
2018-04-11T10:19:34.684Z,48.00
2018-04-11T10:20:35.428Z,28.00
2018-04-11T10:21:36.177Z,25.00
2018-04-11T10:22:36.930Z,32.00
2018-04-11T10:23:37.673Z,29.00
2018-04-11T10:24:38.420Z,27.00
2018-04-11T10:25:39.165Z,24.00
2018-04-11T10:26:39.909Z,34.00
2018-04-11T10:27:40.652Z,31.00
2018-04-11T10:28:41.396Z,33.00
2018-04-11T10:29:42.138Z,31.00
2018-04-11T10:30:42.884Z,31.00
2018-04-11T10:31:43.632Z,27.00
2018-04-11T10:32:44.384Z,25.00
2018-04-11T10:33:45.141Z,34.00
2018-04-11T10:34:45.884Z,23.00
2018-04-11T10:35:46.628Z,26.00
2018-04-11T10:36:47.372Z,27.00
2018-04-11T10:37:48.116Z,26.00
2018-04-11T10:38:48.859Z,26.00
2018-04-11T10:39:49.667Z,37.00
2018-04-11T10:40:50.351Z,29.00
2018-04-11T10:41:51.096Z,25.00
2018-04-11T10:42:51.842Z,30.00
2018-04-11T10:43:52.585Z,26.00
2018-04-11T10:44:53.327Z,30.00
2018-04-11T10:45:54.072Z,28.00
2018-04-11T10:46:54.818Z,31.00
2018-04-11T10:47:55.561Z,28.00
2018-04-11T10:48:56.303Z,28.00
2018-04-11T10:49:57.042Z,35.00
2018-04-11T10:50:57.777Z,45.00
2018-04-11T10:51:58.512Z,39.00
2018-04-11T10:52:59.246Z,33.00
2018-04-11T10:53:59.994Z,31.00
2018-04-11T10:55:00.729Z,26.00
2018-04-11T10:56:01.462Z,32.00
2018-04-11T10:57:02.195Z,30.00
2018-04-11T10:58:02.926Z,32.00
2018-04-11T10:59:03.674Z,23.00
2018-04-11T11:00:04.405Z,26.00
2018-04-11T11:01:05.151Z,31.00
2018-04-11T11:02:05.883Z,27.00
2018-04-11T11:03:06.618Z,30.00
2018-04-11T11:04:07.366Z,35.00
2018-04-11T11:05:08.098Z,33.00
2018-04-11T11:06:08.833Z,24.00
2018-04-11T11:07:09.573Z,27.00
2018-04-11T11:08:10.314Z,34.00
2018-04-11T11:09:11.060Z,27.00
2018-04-11T11:10:11.792Z,31.00
2018-04-11T11:11:12.525Z,35.00
2018-04-11T11:12:13.255Z,33.00
2018-04-11T11:13:14.002Z,32.00
2018-04-11T11:14:14.733Z,31.00
2018-04-11T11:15:15.465Z,29.00
2018-04-11T11:16:16.194Z,31.00
2018-04-11T11:17:16.925Z,43.00
2018-04-11T11:18:17.659Z,35.00
2018-04-11T11:19:18.389Z,31.00
2018-04-11T11:20:19.121Z,35.00
2018-04-11T11:21:19.864Z,42.00
2018-04-11T11:22:20.596Z,36.00
2018-04-11T11:23:21.339Z,40.00
2018-04-11T11:24:22.070Z,40.00
2018-04-11T11:25:22.803Z,30.00
2018-04-11T11:26:23.551Z,42.00
2018-04-11T11:27:24.293Z,35.00
2018-04-11T11:28:25.045Z,24.00
2018-04-11T11:29:25.778Z,33.00
2018-04-11T11:30:26.507Z,27.00
2018-04-11T11:31:27.243Z,32.00
2018-04-11T11:32:27.972Z,34.00
2018-04-11T11:33:28.706Z,21.00
2018-04-11T11:34:29.441Z,27.00
2018-04-11T11:35:30.172Z,27.00
2018-04-11T11:36:30.907Z,34.00
2018-04-11T11:37:31.652Z,29.00
2018-04-11T11:38:32.384Z,31.00
2018-04-11T11:39:33.132Z,24.00
2018-04-11T11:40:33.861Z,35.00
2018-04-11T11:41:34.593Z,48.00
2018-04-11T11:42:35.334Z,32.00
2018-04-11T11:43:36.081Z,27.00
2018-04-11T11:44:36.811Z,34.00
2018-04-11T11:45:37.543Z,31.00
2018-04-11T11:46:38.272Z,32.00
2018-04-11T11:47:39.002Z,26.00
2018-04-11T11:48:39.743Z,42.00
2018-04-11T11:49:40.471Z,29.00
2018-04-11T11:50:41.202Z,36.00
2018-04-11T11:51:41.930Z,27.00
2018-04-11T11:52:42.660Z,37.00
2018-04-11T11:53:43.389Z,39.00
2018-04-11T11:54:44.118Z,43.00
2018-04-11T11:55:44.841Z,37.00
2018-04-11T11:56:45.570Z,56.00
2018-04-11T11:57:46.298Z,32.00
2018-04-11T11:58:47.044Z,38.00
2018-04-11T11:59:47.781Z,52.00
2018-04-11T12:00:48.509Z,63.00
2018-04-11T12:01:49.236Z,45.00
2018-04-11T12:02:49.978Z,39.00
2018-04-11T12:03:50.720Z,35.00
2018-04-11T12:04:51.462Z,44.00
2018-04-11T12:05:52.187Z,36.00
2018-04-11T12:06:52.917Z,44.00
2018-04-11T12:07:53.645Z,40.00
2018-04-11T12:08:54.375Z,37.00
2018-04-11T12:09:55.103Z,45.00
2018-04-11T12:10:55.829Z,53.00
2018-04-11T12:11:56.599Z,40.00
2018-04-11T12:12:57.289Z,35.00
2018-04-11T12:13:58.017Z,38.00
2018-04-11T12:14:58.745Z,40.00
2018-04-11T12:15:59.476Z,51.00
2018-04-11T12:17:00.221Z,41.00
2018-04-11T12:18:00.943Z,42.00
2018-04-11T12:19:01.689Z,48.00
2018-04-11T12:20:02.427Z,45.00
2018-04-11T12:21:03.155Z,53.00
2018-04-11T12:22:03.884Z,40.00
2018-04-11T12:23:04.614Z,32.00
2018-04-11T12:24:05.356Z,44.00
2018-04-11T12:25:06.095Z,40.00
2018-04-11T12:26:06.867Z,52.00
2018-04-11T12:27:07.542Z,53.00
2018-04-11T12:28:08.274Z,50.00
2018-04-11T12:29:09.002Z,41.00
2018-04-11T12:30:09.735Z,44.00
2018-04-11T12:31:10.473Z,43.00
2018-04-11T12:32:11.212Z,43.00
2018-04-11T12:33:11.954Z,48.00
2018-04-11T12:34:12.680Z,41.00
2018-04-11T12:35:13.408Z,45.00
2018-04-11T12:36:14.136Z,42.00
2018-04-11T12:37:14.861Z,39.00
2018-04-11T12:38:15.587Z,58.00
2018-04-11T12:39:16.319Z,49.00
2018-04-11T12:40:17.044Z,35.00
2018-04-11T12:41:17.771Z,49.00
2018-04-11T12:42:18.515Z,50.00
2018-04-11T12:43:19.243Z,46.00
2018-04-11T12:44:19.970Z,56.00
2018-04-11T12:45:20.697Z,45.00
2018-04-11T12:46:21.428Z,45.00
2018-04-11T12:47:22.153Z,43.00
2018-04-11T12:48:22.883Z,46.00
2018-04-11T12:49:23.612Z,50.00
2018-04-11T12:50:24.344Z,47.00
2018-04-11T12:51:25.074Z,45.00
2018-04-11T12:52:25.808Z,53.00
2018-04-11T12:53:26.534Z,50.00
2018-04-11T12:54:27.263Z,49.00
2018-04-11T12:55:28.007Z,43.00
2018-04-11T12:56:28.739Z,37.00
2018-04-11T12:57:29.470Z,48.00
2018-04-11T12:58:30.228Z,52.00
2018-04-11T12:59:30.987Z,37.00
2018-04-11T13:00:31.670Z,48.00
2018-04-11T13:01:32.402Z,48.00